createdAt,value
2023-11-09T00:01:10.099Z,8.90
2023-11-09T00:03:37.869Z,8.90
2023-11-09T00:06:04.928Z,9.00
2023-11-09T00:08:31.866Z,9.00
2023-11-09T00:10:58.541Z,9.00
2023-11-09T00:13:25.274Z,8.90
2023-11-09T00:15:51.995Z,9.00
2023-11-09T00:18:23.142Z,9.00
2023-11-09T00:20:50.991Z,9.00
2023-11-09T00:23:17.751Z,9.00
2023-11-09T00:25:44.394Z,9.00
2023-11-09T00:28:11.291Z,9.00
2023-11-09T00:30:37.913Z,9.00
2023-11-09T00:33:04.577Z,9.00
2023-11-09T00:35:31.435Z,9.10
2023-11-09T00:37:59.286Z,9.00
2023-11-09T00:40:25.946Z,9.00
2023-11-09T00:42:52.873Z,9.00
2023-11-09T00:45:19.868Z,9.10
2023-11-09T00:47:47.086Z,9.10
2023-11-09T00:50:14.196Z,9.10
2023-11-09T00:52:41.647Z,9.10
2023-11-09T00:55:08.656Z,9.10
2023-11-09T00:57:35.601Z,9.10
2023-11-09T01:00:03.821Z,9.10
2023-11-09T01:02:35.465Z,9.10
2023-11-09T01:05:02.433Z,9.10
2023-11-09T01:07:29.476Z,9.10
2023-11-09T01:09:56.190Z,9.10
2023-11-09T01:12:22.844Z,9.10
2023-11-09T01:14:49.932Z,9.10
2023-11-09T01:17:16.519Z,9.10
2023-11-09T01:19:43.811Z,9.10
2023-11-09T01:22:10.485Z,9.10
2023-11-09T01:24:37.156Z,9.10
2023-11-09T01:27:04.041Z,9.10
2023-11-09T01:29:30.746Z,9.10
2023-11-09T01:31:58.949Z,9.10
2023-11-09T01:34:26.043Z,9.10
2023-11-09T01:36:54.641Z,9.10
2023-11-09T01:39:24.300Z,9.10
2023-11-09T01:41:51.289Z,9.10
2023-11-09T01:44:18.031Z,9.10
2023-11-09T01:46:46.276Z,9.10
2023-11-09T01:49:14.463Z,9.10
2023-11-09T01:51:44.134Z,9.10
2023-11-09T01:54:12.665Z,9.10
2023-11-09T01:56:40.198Z,9.10
2023-11-09T01:59:08.376Z,9.10
2023-11-09T02:01:37.045Z,9.10
2023-11-09T02:04:04.573Z,9.10
2023-11-09T02:06:32.140Z,9.10
2023-11-09T02:08:59.407Z,9.10
2023-11-09T02:11:26.427Z,9.10
2023-11-09T02:13:53.474Z,9.10
2023-11-09T02:16:20.423Z,9.10
2023-11-09T02:18:47.182Z,9.10
2023-11-09T02:21:16.173Z,9.10
2023-11-09T02:23:45.298Z,9.10
2023-11-09T02:26:12.632Z,9.10
2023-11-09T02:28:39.275Z,9.10
2023-11-09T02:31:05.916Z,9.10
2023-11-09T02:33:32.557Z,9.10
2023-11-09T02:35:59.458Z,9.10
2023-11-09T02:38:26.140Z,9.10
2023-11-09T02:40:52.789Z,9.10
2023-11-09T02:43:19.610Z,9.10
2023-11-09T02:45:46.416Z,9.10
2023-11-09T02:48:13.092Z,9.10
2023-11-09T02:50:40.087Z,9.10
2023-11-09T02:53:09.009Z,9.10
2023-11-09T02:55:35.832Z,9.20
2023-11-09T02:58:02.546Z,9.10
2023-11-09T03:00:29.184Z,9.10
2023-11-09T03:02:55.879Z,9.10
2023-11-09T03:05:24.158Z,9.10
2023-11-09T03:07:50.982Z,9.10
2023-11-09T03:10:17.707Z,9.20
2023-11-09T03:12:44.734Z,9.20
2023-11-09T03:15:11.717Z,9.20
2023-11-09T03:17:42.488Z,9.10
2023-11-09T03:20:10.543Z,9.10
2023-11-09T03:22:38.389Z,9.10
2023-11-09T03:25:06.499Z,9.20
2023-11-09T03:27:34.281Z,9.10
2023-11-09T03:30:00.924Z,9.10
2023-11-09T03:32:27.717Z,9.10
2023-11-09T03:34:54.355Z,9.20
2023-11-09T03:37:21.349Z,9.20
2023-11-09T03:39:48.042Z,9.20
2023-11-09T03:42:16.897Z,9.20
2023-11-09T03:44:45.339Z,9.10
2023-11-09T03:47:12.012Z,9.20
2023-11-09T03:49:42.482Z,9.20
2023-11-09T03:52:10.513Z,9.20
2023-11-09T03:54:37.397Z,9.20
2023-11-09T03:57:04.598Z,9.20
2023-11-09T03:59:31.306Z,9.20
2023-11-09T04:01:57.888Z,9.20
2023-11-09T04:04:24.813Z,9.20
2023-11-09T04:06:51.845Z,9.20
2023-11-09T04:09:19.986Z,9.20
2023-11-09T04:11:47.668Z,9.20
2023-11-09T04:14:14.568Z,9.20
2023-11-09T04:16:41.410Z,9.20
2023-11-09T04:19:11.048Z,9.20
2023-11-09T04:21:37.914Z,9.20
2023-11-09T04:24:06.229Z,9.20
2023-11-09T04:26:33.788Z,9.20
2023-11-09T04:29:02.202Z,9.20
2023-11-09T04:31:32.018Z,9.20
2023-11-09T04:34:09.953Z,9.20
2023-11-09T04:36:50.729Z,9.20
2023-11-09T04:39:30.777Z,9.20
2023-11-09T04:42:05.387Z,9.20
2023-11-09T04:44:33.412Z,9.20
2023-11-09T04:47:04.704Z,9.20
2023-11-09T04:49:32.446Z,9.20
2023-11-09T04:52:06.011Z,9.20
2023-11-09T04:54:46.662Z,9.20
2023-11-09T04:57:34.767Z,9.20
2023-11-09T05:00:07.321Z,9.20
2023-11-09T05:02:52.773Z,9.20
2023-11-09T05:05:38.163Z,9.20
2023-11-09T05:08:05.055Z,9.20
2023-11-09T05:10:31.697Z,9.20
2023-11-09T05:12:58.424Z,9.20
2023-11-09T05:15:26.066Z,9.20
2023-11-09T05:17:52.762Z,9.20
2023-11-09T05:20:19.404Z,9.20
2023-11-09T05:22:46.640Z,9.20
2023-11-09T05:25:13.681Z,9.20
2023-11-09T05:27:40.320Z,9.20
2023-11-09T05:30:09.436Z,9.20
2023-11-09T05:32:39.064Z,9.20
2023-11-09T05:35:11.316Z,9.20
2023-11-09T05:37:38.852Z,9.20
2023-11-09T05:40:10.497Z,9.20
2023-11-09T05:42:42.478Z,9.20
2023-11-09T05:45:10.418Z,9.20
2023-11-09T05:47:37.052Z,9.20
2023-11-09T05:50:06.206Z,9.20
2023-11-09T05:52:32.847Z,9.30
2023-11-09T05:55:00.619Z,9.20
2023-11-09T05:57:27.605Z,9.30
2023-11-09T05:59:54.220Z,9.30
2023-11-09T06:02:20.796Z,9.30
2023-11-09T06:04:48.175Z,9.30
2023-11-09T06:07:15.551Z,9.30
2023-11-09T06:09:44.626Z,9.30
2023-11-09T06:12:11.372Z,9.30
2023-11-09T06:14:38.398Z,9.30
2023-11-09T06:17:05.049Z,9.30
2023-11-09T06:19:34.076Z,9.30
2023-11-09T06:22:00.732Z,9.30
2023-11-09T06:24:27.719Z,9.30
2023-11-09T06:26:54.995Z,9.30
2023-11-09T06:29:21.588Z,9.30
2023-11-09T06:31:49.800Z,9.30
2023-11-09T06:34:16.755Z,9.30
2023-11-09T06:36:44.319Z,9.40
2023-11-09T06:39:16.065Z,9.40
2023-11-09T06:41:47.082Z,9.40
2023-11-09T06:44:14.641Z,9.40
2023-11-09T06:46:41.462Z,9.40
2023-11-09T06:49:08.322Z,9.40
2023-11-09T06:51:35.523Z,9.50
2023-11-09T06:54:03.288Z,9.50
2023-11-09T06:56:33.387Z,9.50
2023-11-09T06:59:00.600Z,9.50
2023-11-09T07:01:27.562Z,9.50
2023-11-09T07:03:54.329Z,9.50
2023-11-09T07:06:21.160Z,9.50
2023-11-09T07:08:47.780Z,9.50
2023-11-09T07:11:14.409Z,9.50
2023-11-09T07:13:41.107Z,9.50
2023-11-09T07:16:08.511Z,9.60
2023-11-09T07:18:36.437Z,9.60
2023-11-09T07:21:10.535Z,9.60
2023-11-09T07:23:40.158Z,9.60
2023-11-09T07:26:06.829Z,9.60
2023-11-09T07:28:33.580Z,9.60
2023-11-09T07:31:01.860Z,9.60
2023-11-09T07:33:28.614Z,9.60
2023-11-09T07:35:55.322Z,9.60
2023-11-09T07:38:22.207Z,9.60
2023-11-09T07:40:50.452Z,9.70
2023-11-09T07:43:17.620Z,9.70
2023-11-09T07:45:44.276Z,9.70
2023-11-09T07:48:11.644Z,9.70
2023-11-09T07:50:39.884Z,9.70
2023-11-09T07:53:07.116Z,9.70
2023-11-09T07:55:33.834Z,9.80
2023-11-09T07:58:04.169Z,9.80
2023-11-09T08:00:31.180Z,9.80
2023-11-09T08:03:01.458Z,9.80
2023-11-09T08:05:28.244Z,9.80
2023-11-09T08:07:54.866Z,9.80
2023-11-09T08:10:22.868Z,9.80
2023-11-09T08:12:49.723Z,9.80
2023-11-09T08:15:19.379Z,9.80
2023-11-09T08:17:47.665Z,9.80
2023-11-09T08:20:16.355Z,9.90
2023-11-09T08:22:45.965Z,9.90
2023-11-09T08:25:14.404Z,9.90
2023-11-09T08:27:41.762Z,9.90
2023-11-09T08:30:11.304Z,10.00
2023-11-09T08:32:39.597Z,10.00
2023-11-09T08:35:11.358Z,10.00
2023-11-09T08:37:39.535Z,10.00
2023-11-09T08:40:19.376Z,10.00
2023-11-09T08:42:50.294Z,10.00
2023-11-09T08:45:23.028Z,10.00
2023-11-09T08:47:51.253Z,10.00
2023-11-09T08:50:18.225Z,10.00
2023-11-09T08:52:45.842Z,10.00
2023-11-09T08:55:13.425Z,10.00
2023-11-09T08:57:41.055Z,10.00
2023-11-09T09:00:17.481Z,10.00
2023-11-09T09:02:52.373Z,10.10
2023-11-09T09:05:20.669Z,10.10
2023-11-09T09:07:50.635Z,10.10
2023-11-09T09:10:21.942Z,10.10
2023-11-09T09:13:00.312Z,10.20
2023-11-09T09:15:29.168Z,10.30
2023-11-09T09:17:57.058Z,10.30
2023-11-09T09:20:24.637Z,10.30
2023-11-09T09:22:55.472Z,10.30
2023-11-09T09:25:23.866Z,10.30
2023-11-09T09:27:51.976Z,10.30
2023-11-09T09:30:22.126Z,10.30
2023-11-09T09:32:53.799Z,10.40
2023-11-09T09:35:32.618Z,10.40
2023-11-09T09:38:06.161Z,10.40
2023-11-09T09:40:40.559Z,10.40
2023-11-09T09:43:16.733Z,10.40
2023-11-09T09:45:46.021Z,10.40
2023-11-09T09:48:13.662Z,10.40
2023-11-09T09:50:41.581Z,10.30
2023-11-09T09:53:12.276Z,10.30
2023-11-09T09:55:40.907Z,10.20
2023-11-09T09:58:09.586Z,10.20
2023-11-09T10:00:38.245Z,10.20
2023-11-09T10:03:08.740Z,10.10
2023-11-09T10:05:37.186Z,10.10
2023-11-09T10:08:12.154Z,10.10
2023-11-09T10:10:51.265Z,10.20
2023-11-09T10:13:19.816Z,10.40
2023-11-09T10:15:54.602Z,10.50
2023-11-09T10:18:26.155Z,10.60
2023-11-09T10:21:00.212Z,10.60
2023-11-09T10:23:27.535Z,10.50
2023-11-09T10:25:56.062Z,10.40
2023-11-09T10:28:23.903Z,10.40
2023-11-09T10:30:50.559Z,10.40
2023-11-09T10:33:18.782Z,10.40
2023-11-09T10:35:47.745Z,10.40
2023-11-09T10:38:21.688Z,10.30
2023-11-09T10:41:14.122Z,10.30
2023-11-09T10:43:37.417Z,10.30
2023-11-09T10:46:09.411Z,10.50
2023-11-09T10:48:41.666Z,10.50
2023-11-09T10:51:10.885Z,10.70
2023-11-09T10:53:38.970Z,10.80
2023-11-09T10:56:11.613Z,10.90
2023-11-09T10:58:41.943Z,10.90
2023-11-09T11:01:11.895Z,11.10
2023-11-09T11:03:45.178Z,11.30
2023-11-09T11:06:17.784Z,11.50
2023-11-09T11:08:50.983Z,11.50
2023-11-09T11:11:26.757Z,11.40
2023-11-09T11:14:15.632Z,11.40
2023-11-09T11:17:16.397Z,11.30
2023-11-09T11:20:12.544Z,11.30
2023-11-09T11:23:04.670Z,11.40
2023-11-09T11:25:57.319Z,11.40
2023-11-09T11:28:27.814Z,11.40
2023-11-09T11:31:02.868Z,11.40
2023-11-09T11:33:30.093Z,11.40
2023-11-09T11:36:02.185Z,11.30
2023-11-09T11:38:34.071Z,11.40
2023-11-09T11:41:19.374Z,11.20
2023-11-09T11:43:52.484Z,11.20
2023-11-09T11:46:23.190Z,11.10
2023-11-09T11:48:53.697Z,10.90
2023-11-09T11:51:21.744Z,10.90
2023-11-09T11:53:59.123Z,10.90
2023-11-09T11:56:34.899Z,11.00
2023-11-09T11:59:07.435Z,11.00
2023-11-09T12:01:35.198Z,11.10
2023-11-09T12:04:05.937Z,11.10
2023-11-09T12:06:42.675Z,11.40
2023-11-09T12:09:11.116Z,11.90
2023-11-09T12:14:13.152Z,12.60
2023-11-09T12:16:40.488Z,12.80
2023-11-09T12:19:07.328Z,13.10
2023-11-09T12:21:35.499Z,13.20
2023-11-09T12:24:02.352Z,13.20
2023-11-09T12:26:33.174Z,13.50
2023-11-09T12:29:01.324Z,13.50
2023-11-09T12:31:30.867Z,13.30
2023-11-09T12:34:12.029Z,12.90
2023-11-09T12:36:42.477Z,12.60
2023-11-09T12:39:29.601Z,12.60
2023-11-09T12:42:01.989Z,12.60
2023-11-09T12:44:31.462Z,12.70
2023-11-09T12:47:26.710Z,12.70
2023-11-09T12:50:02.200Z,12.50
2023-11-09T12:52:29.709Z,12.40
2023-11-09T12:54:57.788Z,12.40
2023-11-09T12:57:25.844Z,12.30
2023-11-09T12:59:56.841Z,12.00
2023-11-09T13:02:35.767Z,11.80
2023-11-09T13:05:02.767Z,11.60
2023-11-09T13:07:29.472Z,11.40
2023-11-09T13:10:15.078Z,11.30
2023-11-09T13:12:45.863Z,11.30
2023-11-09T13:15:15.004Z,11.50
2023-11-09T13:17:53.721Z,11.70
2023-11-09T13:20:35.252Z,11.80
2023-11-09T13:23:08.174Z,11.80
2023-11-09T13:25:36.765Z,11.90
2023-11-09T13:28:07.517Z,12.10
2023-11-09T13:30:34.802Z,12.20
2023-11-09T13:33:15.244Z,12.20
2023-11-09T13:35:47.402Z,12.00
2023-11-09T13:38:26.531Z,11.80
2023-11-09T13:41:06.688Z,11.60
2023-11-09T13:43:35.635Z,11.40
2023-11-09T13:46:08.812Z,11.30
2023-11-09T13:48:44.062Z,11.20
2023-11-09T13:51:16.147Z,11.20
2023-11-09T13:53:51.397Z,11.20
2023-11-09T13:56:18.008Z,11.20
2023-11-09T13:58:49.037Z,11.20
2023-11-09T14:01:28.924Z,11.20
2023-11-09T14:03:56.573Z,11.20
2023-11-09T14:06:23.657Z,11.20
2023-11-09T14:08:52.380Z,11.30
2023-11-09T14:11:24.136Z,11.40
2023-11-09T14:13:51.449Z,11.50
2023-11-09T14:16:23.993Z,11.50
2023-11-09T14:19:20.988Z,11.50
2023-11-09T14:21:48.785Z,11.40
2023-11-09T14:24:20.339Z,11.20
2023-11-09T14:26:49.360Z,11.20
2023-11-09T14:29:18.872Z,11.10
2023-11-09T14:31:45.907Z,11.00
2023-11-09T14:34:14.727Z,10.90
2023-11-09T14:36:56.747Z,10.80
2023-11-09T14:39:39.028Z,10.70
2023-11-09T14:42:07.218Z,10.70
2023-11-09T14:44:35.256Z,10.60
2023-11-09T14:47:07.683Z,10.50
2023-11-09T14:49:35.915Z,10.50
2023-11-09T14:52:21.463Z,10.40
2023-11-09T14:54:48.546Z,10.30
2023-11-09T14:57:20.985Z,10.20
2023-11-09T14:59:48.126Z,10.10
2023-11-09T15:02:21.809Z,10.10
2023-11-09T15:04:57.040Z,10.00
2023-11-09T15:07:23.691Z,9.90
2023-11-09T15:09:50.778Z,9.80
2023-11-09T15:12:19.522Z,9.70
2023-11-09T15:14:47.185Z,9.60
2023-11-09T15:17:15.287Z,9.60
2023-11-09T15:19:43.319Z,9.50
2023-11-09T15:22:17.425Z,9.50
2023-11-09T15:24:45.045Z,9.40
2023-11-09T15:27:15.460Z,9.30
2023-11-09T15:29:45.420Z,9.30
2023-11-09T15:32:12.819Z,9.30
2023-11-09T15:34:44.347Z,9.30
2023-11-09T15:37:11.769Z,9.30
2023-11-09T15:40:07.076Z,9.20
2023-11-09T15:42:25.023Z,9.20
2023-11-09T15:44:51.629Z,9.20
2023-11-09T15:47:18.219Z,9.20
2023-11-09T15:49:47.452Z,9.10
2023-11-09T15:52:14.125Z,9.10
2023-11-09T15:54:40.853Z,9.10
2023-11-09T15:57:11.774Z,9.10
2023-11-09T15:59:41.836Z,9.00
2023-11-09T16:02:12.200Z,9.00
2023-11-09T16:04:39.266Z,9.00
2023-11-09T16:07:07.720Z,9.00
2023-11-09T16:09:36.669Z,9.00
2023-11-09T16:12:04.678Z,9.00
2023-11-09T16:14:34.180Z,9.00
2023-11-09T16:17:00.846Z,9.00
2023-11-09T16:19:27.706Z,9.00
2023-11-09T16:21:54.343Z,9.00
2023-11-09T16:24:25.703Z,9.00
2023-11-09T16:27:00.596Z,9.00
2023-11-09T16:29:29.036Z,9.00
2023-11-09T16:31:55.770Z,9.00
2023-11-09T16:34:23.555Z,9.00
2023-11-09T16:36:50.243Z,9.00
2023-11-09T16:39:18.000Z,8.90
2023-11-09T16:41:45.549Z,8.90
2023-11-09T16:44:12.603Z,8.90
2023-11-09T16:46:41.923Z,8.90
2023-11-09T16:49:11.777Z,8.90
2023-11-09T16:51:39.661Z,8.90
2023-11-09T16:54:06.744Z,8.90
2023-11-09T16:56:33.695Z,8.90
2023-11-09T16:59:00.710Z,8.90
2023-11-09T17:01:27.550Z,8.80
2023-11-09T17:03:55.113Z,8.80
2023-11-09T17:06:21.868Z,8.80
2023-11-09T17:08:48.948Z,8.80
2023-11-09T17:11:16.608Z,8.80
2023-11-09T17:13:43.292Z,8.80
2023-11-09T17:16:10.231Z,8.80
2023-11-09T17:18:37.838Z,8.80
2023-11-09T17:21:05.746Z,8.70
2023-11-09T17:23:32.613Z,8.70
2023-11-09T17:26:01.256Z,8.70
2023-11-09T17:28:29.546Z,8.80
2023-11-09T17:30:56.242Z,8.70
2023-11-09T17:33:23.662Z,8.70
2023-11-09T17:35:50.940Z,8.70
2023-11-09T17:38:19.605Z,8.70
2023-11-09T17:40:48.116Z,8.70
2023-11-09T17:43:15.426Z,8.70
2023-11-09T17:45:42.188Z,8.70
2023-11-09T17:48:12.510Z,8.70
2023-11-09T17:50:41.198Z,8.60
2023-11-09T17:53:08.102Z,8.60
2023-11-09T17:55:34.858Z,8.60
2023-11-09T17:58:03.816Z,8.50
2023-11-09T18:00:30.499Z,8.50
2023-11-09T18:02:59.029Z,8.50
2023-11-09T18:05:25.985Z,8.50
2023-11-09T18:07:52.696Z,8.50
2023-11-09T18:10:19.500Z,8.50
2023-11-09T18:12:48.925Z,8.60
2023-11-09T18:15:16.066Z,8.60
2023-11-09T18:17:43.245Z,8.60
2023-11-09T18:20:17.833Z,8.70
2023-11-09T18:22:44.908Z,8.70
2023-11-09T18:25:11.906Z,8.70
2023-11-09T18:27:40.171Z,8.70
2023-11-09T18:30:10.480Z,8.70
2023-11-09T18:32:37.402Z,8.60
2023-11-09T18:35:07.352Z,8.60
2023-11-09T18:37:35.211Z,8.60
2023-11-09T18:40:02.277Z,8.60
2023-11-09T18:42:29.910Z,8.60
2023-11-09T18:44:56.957Z,8.60
2023-11-09T18:47:27.576Z,8.60
2023-11-09T18:52:27.976Z,8.70
2023-11-09T18:54:54.583Z,8.70
2023-11-09T18:57:21.894Z,8.70
2023-11-09T18:59:48.578Z,8.70
2023-11-09T19:02:15.363Z,8.70
2023-11-09T19:04:43.726Z,8.70
2023-11-09T19:07:10.539Z,8.70
2023-11-09T19:09:37.254Z,8.60
2023-11-09T19:12:05.182Z,8.60
2023-11-09T19:14:32.086Z,8.50
2023-11-09T19:16:58.777Z,8.50
2023-11-09T19:19:25.461Z,8.50
2023-11-09T19:24:23.009Z,8.40
2023-11-09T19:26:50.032Z,8.40
2023-11-09T19:29:17.255Z,8.40
2023-11-09T19:31:44.938Z,8.40
2023-11-09T19:34:11.984Z,8.30
2023-11-09T19:36:38.787Z,8.30
2023-11-09T19:39:09.650Z,8.30
2023-11-09T19:41:42.203Z,8.30
2023-11-09T19:44:09.432Z,8.30
2023-11-09T19:46:36.180Z,8.30
2023-11-09T19:49:04.862Z,8.30
2023-11-09T19:51:33.271Z,8.30
2023-11-09T19:54:00.022Z,8.20
2023-11-09T19:56:26.730Z,8.20
2023-11-09T19:58:54.704Z,8.20
2023-11-09T20:01:22.831Z,8.20
2023-11-09T20:03:51.038Z,8.20
2023-11-09T20:06:20.009Z,8.20
2023-11-09T20:08:46.617Z,8.20
2023-11-09T20:11:13.383Z,8.20
2023-11-09T20:13:41.401Z,8.20
2023-11-09T20:16:08.777Z,8.20
2023-11-09T20:18:35.438Z,8.20
2023-11-09T20:21:02.700Z,8.20
2023-11-09T20:23:29.353Z,8.30
2023-11-09T20:25:56.250Z,8.30
2023-11-09T20:28:22.980Z,8.30
2023-11-09T20:30:49.613Z,8.30
2023-11-09T20:33:16.830Z,8.30
2023-11-09T20:35:43.589Z,8.30
2023-11-09T20:38:12.797Z,8.30
2023-11-09T20:40:39.717Z,8.30
2023-11-09T20:43:06.320Z,8.30
2023-11-09T20:45:33.007Z,8.40
2023-11-09T20:47:59.787Z,8.40
2023-11-09T20:50:26.641Z,8.40
2023-11-09T20:52:53.283Z,8.40
2023-11-09T20:55:22.506Z,8.40
2023-11-09T20:57:50.542Z,8.50
2023-11-09T21:00:24.112Z,8.50
2023-11-09T21:02:53.780Z,8.60
2023-11-09T21:05:22.130Z,8.60
2023-11-09T21:07:48.811Z,8.60
2023-11-09T21:10:15.678Z,8.70
2023-11-09T21:12:46.738Z,8.80
2023-11-09T21:15:13.962Z,8.80
2023-11-09T21:17:44.697Z,8.80
2023-11-09T21:20:16.520Z,8.90
2023-11-09T21:22:44.250Z,8.90
2023-11-09T21:25:13.649Z,8.90
2023-11-09T21:27:41.230Z,8.90
2023-11-09T21:30:09.263Z,8.90
2023-11-09T21:32:36.265Z,8.90
2023-11-09T21:35:03.177Z,8.90
2023-11-09T21:37:30.469Z,8.90
2023-11-09T21:39:57.233Z,8.90
2023-11-09T21:42:26.981Z,8.90
2023-11-09T21:44:53.612Z,8.90
2023-11-09T21:47:20.780Z,8.90
2023-11-09T21:49:48.292Z,8.90
2023-11-09T21:52:15.113Z,8.90
2023-11-09T21:54:44.482Z,8.90
2023-11-09T21:57:14.690Z,8.80
2023-11-09T21:59:41.964Z,8.80
2023-11-09T22:02:08.588Z,8.70
2023-11-09T22:04:38.141Z,8.70
2023-11-09T22:07:05.220Z,8.60
2023-11-09T22:09:33.140Z,8.50
2023-11-09T22:12:00.057Z,8.50
2023-11-09T22:14:28.400Z,8.40
2023-11-09T22:16:55.101Z,8.30
2023-11-09T22:19:21.950Z,8.20
2023-11-09T22:21:49.890Z,8.20
2023-11-09T22:24:16.757Z,8.00
2023-11-09T22:26:47.570Z,7.90
2023-11-09T22:29:14.938Z,7.80
2023-11-09T22:31:41.792Z,7.80
2023-11-09T22:34:08.555Z,7.70
2023-11-09T22:36:35.277Z,7.60
2023-11-09T22:39:02.313Z,7.50
2023-11-09T22:41:28.944Z,7.50
2023-11-09T22:43:56.588Z,7.40
2023-11-09T22:46:24.760Z,7.30
2023-11-09T22:48:51.666Z,7.30
2023-11-09T22:51:20.548Z,7.20
2023-11-09T22:53:47.206Z,7.20
2023-11-09T22:56:14.217Z,7.10
2023-11-09T22:58:41.029Z,7.10
2023-11-09T23:01:07.685Z,7.10
2023-11-09T23:03:34.417Z,7.10
2023-11-09T23:06:01.450Z,7.10
2023-11-09T23:08:28.353Z,7.10
2023-11-09T23:10:55.029Z,7.10
2023-11-09T23:13:21.713Z,7.00
2023-11-09T23:15:48.583Z,7.00
2023-11-09T23:18:16.366Z,7.00
2023-11-09T23:20:44.588Z,7.00
2023-11-09T23:23:11.310Z,7.00
2023-11-09T23:25:37.968Z,7.00
2023-11-09T23:28:04.742Z,7.00
2023-11-09T23:30:31.492Z,7.10
2023-11-09T23:32:58.170Z,7.10
2023-11-09T23:35:24.847Z,7.10
2023-11-09T23:37:51.472Z,7.10
2023-11-09T23:40:18.248Z,7.20
2023-11-09T23:42:48.140Z,7.20
2023-11-09T23:45:14.931Z,7.20
2023-11-09T23:47:42.129Z,7.20
2023-11-09T23:50:10.917Z,7.20
2023-11-09T23:52:37.930Z,7.20
2023-11-09T23:55:05.723Z,7.20
2023-11-09T23:57:35.680Z,7.20
